Time;durP1;ratioP1;P1;durP2;ratioP2;P2;SDS_P1;SDS_P2;PMS_P1;PMS_P2;Temp;Humidity;BMP_temperature;BMP_pressure;BME280_temperature;BME280_humidity;BME280_pressure;Samples;Min_cycle;Max_cycle;Signal;HPM_P1;HPM_P2
2022/04/02 00:02:00;;;;;;;2.35;1.30;;;1.80;85.30;;;;;;4989575;28;20040;-67
2022/04/02 00:04:26;;;;;;;3.15;1.75;;;1.70;85.40;;;;;;5028028;28;20103;-67
2022/04/02 00:06:53;;;;;;;2.88;1.40;;;1.80;85.60;;;;;;4994124;28;20473;-67
2022/04/02 00:09:20;;;;;;;2.58;1.50;;;1.80;85.70;;;;;;5019329;28;20503;-67
2022/04/02 00:11:45;;;;;;;2.95;1.77;;;1.70;86.00;;;;;;5012912;28;20085;-66
2022/04/02 00:14:12;;;;;;;6.40;2.13;;;1.70;86.40;;;;;;5006841;28;20502;-67
2022/04/02 00:16:37;;;;;;;2.60;1.63;;;1.70;86.70;;;;;;4995601;28;20793;-66
2022/04/02 00:19:03;;;;;;;3.83;1.50;;;1.60;87.00;;;;;;5017415;28;20041;-66
2022/04/02 00:21:29;;;;;;;3.72;1.77;;;1.60;87.00;;;;;;5018977;28;20098;-67
2022/04/02 00:23:54;;;;;;;3.20;1.45;;;1.50;87.30;;;;;;5025899;28;20071;-66
2022/04/02 00:26:20;;;;;;;5.07;1.83;;;1.40;87.50;;;;;;5019999;28;20377;-66
2022/04/02 00:28:48;;;;;;;2.28;1.40;;;1.50;87.50;;;;;;5026717;28;20113;-67
2022/04/02 00:31:15;;;;;;;3.72;1.60;;;1.40;87.70;;;;;;5018375;28;20087;-67
2022/04/02 00:33:44;;;;;;;4.47;2.00;;;1.40;88.00;;;;;;5025984;28;20049;-67
2022/04/02 00:36:11;;;;;;;3.38;1.58;;;1.40;88.30;;;;;;5004354;28;20045;-67
2022/04/02 00:38:39;;;;;;;4.10;1.90;;;1.40;88.40;;;;;;5028307;28;20052;-67
2022/04/02 00:41:05;;;;;;;3.47;1.60;;;1.40;88.40;;;;;;5022239;28;20196;-67
2022/04/02 00:43:35;;;;;;;3.60;1.73;;;1.30;88.40;;;;;;5004037;28;20037;-67
2022/04/02 00:46:07;;;;;;;3.28;1.67;;;1.40;88.50;;;;;;5024174;28;20045;-67
2022/04/02 00:48:33;;;;;;;2.60;1.58;;;1.30;88.70;;;;;;5025846;28;20060;-67
2022/04/02 00:51:00;;;;;;;3.30;1.50;;;1.30;89.00;;;;;;5027222;28;20046;-67
2022/04/02 00:53:31;;;;;;;2.83;1.60;;;1.30;89.10;;;;;;5026173;28;20042;-67
2022/04/02 00:55:58;;;;;;;5.93;1.95;;;1.20;89.40;;;;;;5021595;28;20505;-67
2022/04/02 00:58:24;;;;;;;2.40;1.55;;;1.20;89.60;;;;;;5012278;28;20041;-67
2022/04/02 01:00:49;;;;;;;2.97;1.98;;;1.20;89.90;;;;;;4997634;28;20062;-68
2022/04/02 01:03:17;;;;;;;2.47;1.50;;;1.20;89.90;;;;;;5006629;28;20050;-68
2022/04/02 01:05:44;;;;;;;2.35;1.23;;;1.20;90.10;;;;;;5019674;28;20100;-68
2022/04/02 01:08:09;;;;;;;3.58;1.52;;;1.20;90.20;;;;;;5005527;28;20038;-68
2022/04/02 01:10:39;;;;;;;3.85;2.10;;;1.20;90.10;;;;;;5021957;28;20531;-68
2022/04/02 01:13:05;;;;;;;3.70;1.90;;;1.10;90.30;;;;;;4994398;28;20107;-68
2022/04/02 01:15:31;;;;;;;3.53;1.90;;;1.10;90.40;;;;;;5005770;28;20410;-68
2022/04/02 01:17:57;;;;;;;3.08;1.80;;;1.10;90.60;;;;;;5005269;28;20038;-68
2022/04/02 01:20:24;;;;;;;3.55;1.65;;;1.10;90.50;;;;;;5007106;28;20373;-68
2022/04/02 01:22:50;;;;;;;2.00;1.50;;;1.10;90.90;;;;;;4994159;28;20085;-68
2022/04/02 01:25:16;;;;;;;2.88;1.85;;;1.00;90.70;;;;;;5024623;28;20080;-68
2022/04/02 01:27:44;;;;;;;3.08;1.83;;;1.00;90.70;;;;;;5024657;28;20072;-68
2022/04/02 01:30:10;;;;;;;2.97;1.73;;;0.90;90.80;;;;;;5024266;28;20042;-67
2022/04/02 01:32:36;;;;;;;2.80;1.70;;;0.90;91.00;;;;;;5004641;28;20037;-68
2022/04/02 01:35:02;;;;;;;3.22;2.08;;;0.90;90.90;;;;;;5023109;28;20033;-67
2022/04/02 01:37:28;;;;;;;2.60;1.80;;;0.90;91.10;;;;;;5024602;28;20103;-68
2022/04/02 01:39:53;;;;;;;3.00;1.95;;;0.90;91.10;;;;;;5026658;28;20037;-68
2022/04/02 01:42:24;;;;;;;4.07;2.03;;;0.90;91.30;;;;;;5022780;28;20062;-66
2022/04/02 01:44:51;;;;;;;3.88;2.00;;;0.80;91.30;;;;;;5022910;28;20054;-66
2022/04/02 01:47:21;;;;;;;4.30;1.80;;;0.80;91.40;;;;;;5023069;28;20103;-66
2022/04/02 01:49:48;;;;;;;3.92;2.03;;;0.80;91.60;;;;;;5000967;28;20053;-67
2022/04/02 01:52:16;;;;;;;2.65;2.13;;;0.80;91.70;;;;;;5022377;28;20037;-67
2022/04/02 01:54:42;;;;;;;3.03;2.08;;;0.80;91.60;;;;;;5004851;28;20128;-66
2022/04/02 01:57:08;;;;;;;5.32;2.35;;;0.80;91.60;;;;;;4998250;28;20046;-67
2022/04/02 01:59:34;;;;;;;3.97;2.08;;;0.80;91.60;;;;;;5019086;28;20049;-67
2022/04/02 02:02:00;;;;;;;3.60;2.00;;;0.80;91.80;;;;;;5002531;28;20397;-67
2022/04/02 02:04:27;;;;;;;2.83;1.63;;;0.80;91.80;;;;;;5007575;28;20038;-66
2022/04/02 02:06:52;;;;;;;3.17;1.73;;;0.80;91.90;;;;;;5017963;28;20092;-67
2022/04/02 02:09:18;;;;;;;3.05;1.90;;;0.80;92.00;;;;;;5002031;28;20030;-68
2022/04/02 02:11:44;;;;;;;2.95;1.77;;;0.80;92.00;;;;;;5004311;28;20452;-67
2022/04/02 02:14:10;;;;;;;4.03;2.15;;;0.80;92.00;;;;;;5022950;28;21380;-68
2022/04/02 02:16:35;;;;;;;5.72;1.80;;;0.80;92.30;;;;;;5022493;28;20488;-68
2022/04/02 02:19:01;;;;;;;5.32;2.22;;;0.80;92.30;;;;;;5023015;28;20071;-67
2022/04/02 02:21:27;;;;;;;4.47;2.70;;;0.70;92.40;;;;;;5023365;28;20040;-67
2022/04/02 02:23:52;;;;;;;3.75;2.03;;;0.80;92.40;;;;;;5024563;28;20045;-66
2022/04/02 02:26:18;;;;;;;5.25;2.10;;;0.80;92.40;;;;;;5001767;28;20041;-67
2022/04/02 02:28:44;;;;;;;3.58;2.30;;;0.80;92.50;;;;;;5005375;28;20063;-67
2022/04/02 02:31:10;;;;;;;3.90;2.08;;;0.70;92.80;;;;;;5019535;28;20165;-67
2022/04/02 02:36:20;;;;;;;4.10;2.17;;;0.70;92.90;;;;;;5002027;28;20059;-66
2022/04/02 02:38:46;;;;;;;5.38;2.28;;;0.70;93.00;;;;;;5005395;28;20053;-66
2022/04/02 02:41:12;;;;;;;4.20;2.10;;;0.60;93.10;;;;;;5002835;28;20061;-67
2022/04/02 02:43:38;;;;;;;3.97;2.38;;;0.60;93.20;;;;;;5023215;28;20519;-67
2022/04/02 02:46:05;;;;;;;4.22;2.78;;;0.60;93.40;;;;;;5002650;28;20054;-67
2022/04/02 02:48:31;;;;;;;3.80;2.20;;;0.70;93.30;;;;;;5026495;28;20037;-68
2022/04/02 02:50:57;;;;;;;3.55;2.22;;;0.60;93.70;;;;;;4997350;28;20100;-68
2022/04/02 02:53:22;;;;;;;3.78;2.33;;;0.60;93.80;;;;;;5008550;28;20045;-68
2022/04/02 02:55:49;;;;;;;7.30;2.60;;;0.60;93.60;;;;;;5011303;28;20048;-67
2022/04/02 02:58:14;;;;;;;4.93;2.03;;;0.70;93.70;;;;;;5007321;28;20210;-67
2022/04/02 03:00:41;;;;;;;3.95;2.10;;;0.60;93.90;;;;;;5009212;28;20045;-66
2022/04/02 03:03:07;;;;;;;4.72;2.13;;;0.60;93.90;;;;;;5024711;28;20054;-67
2022/04/02 03:05:32;;;;;;;3.30;2.15;;;0.60;93.90;;;;;;5018304;28;20054;-67
2022/04/02 03:07:59;;;;;;;3.10;1.90;;;0.60;94.00;;;;;;5022105;28;20450;-67
2022/04/02 03:10:29;;;;;;;5.15;2.65;;;0.60;94.10;;;;;;5002330;28;20050;-67
2022/04/02 03:12:57;;;;;;;4.15;2.00;;;0.60;94.40;;;;;;5024820;28;20090;-67
2022/04/02 03:15:24;;;;;;;4.95;2.47;;;0.60;94.30;;;;;;5020977;28;20113;-67
2022/04/02 03:17:52;;;;;;;3.55;2.15;;;0.60;94.20;;;;;;5023467;28;20056;-67
2022/04/02 03:20:19;;;;;;;4.45;2.10;;;0.50;94.40;;;;;;5018116;28;20149;-67
2022/04/02 03:22:47;;;;;;;4.32;2.22;;;0.50;94.60;;;;;;5004164;28;20064;-67
2022/04/02 03:25:15;;;;;;;3.78;2.35;;;0.60;94.50;;;;;;5022437;28;20042;-68
2022/04/02 03:27:46;;;;;;;4.75;2.10;;;0.50;94.40;;;;;;5017929;28;20068;-68
2022/04/02 03:30:14;;;;;;;6.43;2.35;;;0.50;94.50;;;;;;5022056;28;20120;-67
2022/04/02 03:32:41;;;;;;;4.70;2.33;;;0.50;94.80;;;;;;5022600;28;20470;-68
2022/04/02 03:35:08;;;;;;;4.18;2.20;;;0.40;94.50;;;;;;5024041;28;20136;-68
2022/04/02 03:37:38;;;;;;;4.38;2.25;;;0.40;94.90;;;;;;5017437;28;20038;-68
2022/04/02 03:40:07;;;;;;;5.45;2.22;;;0.40;95.00;;;;;;5019417;28;20044;-68
2022/04/02 03:42:36;;;;;;;6.35;2.67;;;0.40;95.40;;;;;;4998251;28;20054;-68
2022/04/02 03:45:04;;;;;;;3.97;2.42;;;0.40;95.80;;;;;;4997892;28;20045;-68
2022/04/02 03:47:30;;;;;;;3.22;2.00;;;0.40;95.80;;;;;;5016756;28;20049;-68
2022/04/02 03:49:55;;;;;;;4.75;2.35;;;0.50;95.90;;;;;;5008798;28;20042;-66
2022/04/02 03:52:21;;;;;;;4.22;2.20;;;0.50;96.10;;;;;;4999429;28;20041;-67
2022/04/02 03:54:47;;;;;;;4.60;2.55;;;0.40;95.90;;;;;;5003789;28;20046;-66
2022/04/02 03:57:13;;;;;;;5.32;2.38;;;0.50;96.20;;;;;;5018854;28;20042;-66
2022/04/02 03:59:40;;;;;;;5.82;2.35;;;0.50;96.30;;;;;;5020580;28;20091;-66
2022/04/02 04:02:08;;;;;;;5.10;2.45;;;0.40;96.40;;;;;;5018822;28;20556;-67
2022/04/02 04:04:35;;;;;;;3.03;2.10;;;0.40;96.50;;;;;;5021846;28;20124;-67
2022/04/02 04:07:02;;;;;;;5.45;2.70;;;0.40;96.50;;;;;;5021809;28;20111;-67
2022/04/02 04:09:28;;;;;;;3.70;2.13;;;0.40;96.50;;;;;;5002234;28;20037;-67
2022/04/02 04:11:54;;;;;;;7.07;2.60;;;0.40;97.10;;;;;;5020572;28;20063;-67
2022/04/02 04:14:20;;;;;;;4.15;2.05;;;0.40;97.00;;;;;;5022202;28;20516;-68
2022/04/02 04:16:47;;;;;;;3.25;2.17;;;0.40;97.10;;;;;;5022996;28;20030;-67
2022/04/02 04:19:13;;;;;;;242.68;162.82;;;0.40;97.30;;;;;;5005572;28;20420;-67
2022/04/02 04:21:40;;;;;;;10.73;5.47;;;0.40;97.70;;;;;;5027326;28;20128;-67
2022/04/02 04:24:07;;;;;;;6.20;2.95;;;0.40;97.40;;;;;;5003950;28;20042;-67
2022/04/02 04:26:33;;;;;;;5.05;2.28;;;0.40;97.50;;;;;;5008770;28;20073;-67
2022/04/02 04:28:59;;;;;;;5.20;2.47;;;0.30;97.20;;;;;;5027688;28;20519;-67
2022/04/02 04:31:25;;;;;;;4.40;2.72;;;0.30;97.40;;;;;;5007153;28;20029;-67
2022/04/02 04:33:51;;;;;;;5.22;2.20;;;0.30;97.40;;;;;;5028412;28;20099;-67
2022/04/02 04:36:21;;;;;;;6.13;2.13;;;0.30;97.60;;;;;;5023500;28;20046;-67
2022/04/02 04:38:48;;;;;;;7.40;3.00;;;0.20;98.20;;;;;;5029797;28;20056;-67
2022/04/02 04:41:14;;;;;;;6.30;2.72;;;0.20;98.00;;;;;;5002906;28;20096;-67
2022/04/02 04:43:41;;;;;;;4.97;2.80;;;0.20;98.60;;;;;;5030785;28;20048;-67
2022/04/02 04:46:08;;;;;;;4.45;2.53;;;0.20;98.40;;;;;;5010700;28;20401;-67
2022/04/02 04:48:37;;;;;;;6.35;2.40;;;0.20;98.70;;;;;;5029125;28;20034;-67
2022/04/02 04:51:03;;;;;;;5.60;2.17;;;0.10;98.70;;;;;;5008497;28;20046;-67
2022/04/02 04:53:29;;;;;;;4.30;2.38;;;0.10;99.20;;;;;;5011324;28;20060;-67
2022/04/02 04:55:55;;;;;;;5.32;2.53;;;0.10;99.60;;;;;;5026095;28;20076;-67
2022/04/02 04:58:21;;;;;;;4.47;2.65;;;0.10;99.40;;;;;;5027780;28;20034;-67
2022/04/02 05:00:47;;;;;;;3.25;2.33;;;0.10;99.10;;;;;;5027358;28;20598;-67
2022/04/02 05:03:13;;;;;;;4.72;2.10;;;0.10;99.60;;;;;;5027878;28;20117;-67
2022/04/02 05:05:39;;;;;;;9.65;3.15;;;0.10;99.80;;;;;;5030223;28;20733;-66
2022/04/02 05:08:06;;;;;;;7.35;2.08;;;0.00;99.70;;;;;;5011373;28;20846;-67
2022/04/02 05:10:33;;;;;;;5.50;2.10;;;0.00;99.80;;;;;;5028856;28;20499;-67
2022/04/02 05:12:59;;;;;;;5.15;2.42;;;0.00;99.90;;;;;;5013791;28;20037;-67
2022/04/02 05:15:25;;;;;;;6.82;2.22;;;0.00;99.90;;;;;;5026065;28;20043;-66
2022/04/02 05:17:51;;;;;;;5.80;2.05;;;0.10;99.90;;;;;;5012210;28;20496;-66
2022/04/02 05:20:17;;;;;;;5.60;2.78;;;0.00;99.90;;;;;;5023216;28;20045;-66
2022/04/02 05:22:44;;;;;;;3.75;2.20;;;0.10;99.90;;;;;;5011003;28;20540;-66
2022/04/02 05:25:10;;;;;;;5.18;2.50;;;0.10;99.90;;;;;;5006915;28;20129;-66
2022/04/02 05:27:36;;;;;;;6.50;3.25;;;0.10;99.90;;;;;;4995108;28;20099;-67
2022/04/02 05:30:04;;;;;;;4.97;2.58;;;0.10;99.90;;;;;;5026028;28;20345;-67
2022/04/02 05:32:30;;;;;;;5.35;2.42;;;0.10;99.90;;;;;;5021602;28;20042;-67
2022/04/02 05:34:56;;;;;;;6.18;2.20;;;0.10;99.90;;;;;;5025121;28;20045;-67
2022/04/02 05:37:23;;;;;;;4.38;2.20;;;0.20;99.90;;;;;;5005566;28;20033;-66
2022/04/02 05:39:49;;;;;;;8.18;4.40;;;0.20;99.90;;;;;;5007498;28;20049;-66
2022/04/02 05:42:15;;;;;;;3.55;1.88;;;0.20;99.90;;;;;;5007513;28;20078;-66
2022/04/02 05:44:40;;;;;;;5.03;2.55;;;0.30;99.90;;;;;;5008724;28;20076;-67
2022/04/02 05:47:07;;;;;;;6.75;2.60;;;0.30;99.90;;;;;;5002571;28;20061;-66
2022/04/02 05:49:33;;;;;;;4.38;2.03;;;0.40;99.90;;;;;;5026860;28;20088;-67
2022/04/02 05:51:59;;;;;;;7.07;2.53;;;0.50;99.90;;;;;;5023625;28;20033;-68
2022/04/02 05:54:25;;;;;;;6.22;2.10;;;0.50;99.90;;;;;;4995718;28;20037;-68
2022/04/02 05:56:52;;;;;;;4.85;2.10;;;0.60;99.90;;;;;;5023336;28;20141;-67
2022/04/02 05:59:18;;;;;;;5.65;2.40;;;0.70;99.90;;;;;;5008868;28;20099;-67
2022/04/02 06:01:44;;;;;;;4.28;2.08;;;0.80;99.90;;;;;;5024267;28;20376;-68
2022/04/02 06:04:10;;;;;;;6.07;2.75;;;0.80;99.90;;;;;;5010025;28;20107;-68
2022/04/02 06:06:37;;;;;;;7.57;2.10;;;0.90;99.90;;;;;;5008408;28;20140;-68
2022/04/02 06:09:03;;;;;;;4.85;2.88;;;1.00;99.90;;;;;;5028870;28;20106;-68
2022/04/02 06:11:30;;;;;;;4.90;2.85;;;1.10;99.90;;;;;;5007142;28;20102;-68
2022/04/02 06:13:56;;;;;;;4.38;2.20;;;1.20;99.90;;;;;;5026103;28;20045;-68
2022/04/02 06:16:23;;;;;;;5.68;1.90;;;1.30;99.90;;;;;;4992241;28;20623;-68
2022/04/02 06:18:50;;;;;;;5.30;2.22;;;1.40;99.90;;;;;;5006438;28;20068;-68
2022/04/02 06:21:16;;;;;;;5.05;1.88;;;1.50;99.90;;;;;;5001496;28;20133;-68
2022/04/02 06:23:42;;;;;;;7.07;2.17;;;1.60;99.90;;;;;;5001456;28;20382;-68
2022/04/02 06:26:09;;;;;;;6.03;3.00;;;1.70;99.90;;;;;;5023338;28;20038;-68
2022/04/02 06:28:36;;;;;;;5.78;2.33;;;1.80;99.90;;;;;;5013859;28;20038;-68
2022/04/02 06:31:02;;;;;;;5.30;2.05;;;1.80;99.90;;;;;;5015355;28;20073;-68
2022/04/02 06:33:28;;;;;;;4.82;2.72;;;1.90;99.90;;;;;;5004089;28;20496;-68
2022/04/02 06:35:54;;;;;;;4.95;2.28;;;2.00;99.90;;;;;;5002894;28;20100;-67
2022/04/02 06:38:20;;;;;;;5.05;2.58;;;2.10;99.90;;;;;;5006782;28;20445;-68
2022/04/02 06:40:46;;;;;;;3.97;2.38;;;2.20;99.90;;;;;;5008754;28;20055;-68
2022/04/02 06:43:13;;;;;;;5.95;2.17;;;2.20;99.90;;;;;;4995808;28;20465;-68
2022/04/02 06:45:39;;;;;;;3.60;2.38;;;2.30;99.90;;;;;;5027498;28;20041;-68
2022/04/02 06:48:05;;;;;;;6.43;2.10;;;2.30;99.90;;;;;;5005724;28;20063;-68
2022/04/02 06:50:30;;;;;;;4.63;2.40;;;2.40;99.90;;;;;;5027065;28;20038;-68
2022/04/02 06:52:56;;;;;;;3.47;2.00;;;2.40;99.90;;;;;;5005262;28;20053;-68
2022/04/02 06:55:22;;;;;;;5.32;2.17;;;2.50;99.90;;;;;;4991376;28;20386;-67
2022/04/02 06:57:58;;;;;;;8.45;2.65;;;2.60;99.90;;;;;;5011268;28;21864;-67
2022/04/02 07:00:24;;;;;;;5.50;2.50;;;2.70;99.90;;;;;;5026928;28;20053;-67
2022/04/02 07:02:50;;;;;;;5.40;2.90;;;2.90;99.90;;;;;;5008436;28;20057;-67
2022/04/02 07:05:18;;;;;;;6.60;2.42;;;3.00;99.90;;;;;;5026062;28;20091;-67
2022/04/02 07:07:44;;;;;;;6.35;2.45;;;3.10;99.90;;;;;;5025786;28;20045;-68
2022/04/02 07:10:11;;;;;;;4.00;2.22;;;3.30;99.90;;;;;;5017318;28;20107;-67
2022/04/02 07:12:37;;;;;;;6.70;2.80;;;3.40;99.60;;;;;;5007069;28;20485;-67
2022/04/02 07:15:03;;;;;;;4.10;2.10;;;3.50;99.00;;;;;;5002950;28;20518;-67
2022/04/02 07:17:30;;;;;;;3.83;2.40;;;3.60;98.80;;;;;;5027666;28;20037;-67
2022/04/02 07:19:57;;;;;;;5.70;2.40;;;3.80;98.60;;;;;;5015477;28;20061;-67
2022/04/02 07:22:24;;;;;;;5.93;2.35;;;3.90;98.10;;;;;;5019512;28;20091;-68
2022/04/02 07:24:52;;;;;;;7.00;2.30;;;4.20;98.20;;;;;;4997844;28;20057;-67
2022/04/02 07:27:21;;;;;;;4.75;2.90;;;4.40;97.20;;;;;;5001539;28;20486;-67
2022/04/02 07:29:52;;;;;;;5.68;2.33;;;4.60;96.70;;;;;;5004143;28;20474;-67
2022/04/02 07:32:18;;;;;;;4.65;2.08;;;4.70;96.00;;;;;;5022961;28;20144;-67
2022/04/02 07:34:43;;;;;;;4.55;2.22;;;4.90;94.90;;;;;;5018089;28;20041;-68
2022/04/02 07:37:27;;;;;;;6.45;2.20;;;5.00;94.80;;;;;;5005854;28;20505;-68
2022/04/02 07:40:14;;;;;;;5.32;2.47;;;5.10;93.80;;;;;;5021814;28;20095;-68
2022/04/02 07:43:10;;;;;;;7.72;2.60;;;5.20;94.10;;;;;;5005458;28;20614;-68
2022/04/02 07:45:41;;;;;;;4.70;1.90;;;5.60;92.70;;;;;;5000605;28;20137;-68
2022/04/02 07:48:09;;;;;;;14.48;9.13;;;6.00;93.30;;;;;;5006329;28;20033;-68
2022/04/02 07:50:41;;;;;;;6.25;2.65;;;6.30;93.10;;;;;;5000493;28;20061;-68
2022/04/02 07:53:18;;;;;;;4.15;2.30;;;6.50;91.80;;;;;;5026422;28;20046;-68
2022/04/02 07:55:50;;;;;;;4.28;1.92;;;6.80;90.30;;;;;;5023058;28;20041;-68
2022/04/02 07:58:19;;;;;;;2.85;1.58;;;6.80;87.00;;;;;;5025264;28;20144;-68
2022/04/02 08:00:52;;;;;;;4.72;1.70;;;6.90;87.70;;;;;;5027684;28;20049;-69
2022/04/02 08:03:20;;;;;;;3.63;2.10;;;7.20;86.40;;;;;;5010478;28;20132;-71
2022/04/02 08:05:47;;;;;;;4.80;1.92;;;7.40;86.30;;;;;;4992724;28;20053;-67
2022/04/02 08:08:13;;;;;;;5.97;2.10;;;7.40;83.60;;;;;;4987937;28;20077;-68
2022/04/02 08:10:45;;;;;;;6.40;1.73;;;7.30;84.30;;;;;;5001348;28;20131;-69
2022/04/02 08:13:14;;;;;;;4.88;1.73;;;7.30;83.70;;;;;;5022872;28;20042;-69
2022/04/02 08:15:40;;;;;;;4.28;1.77;;;7.10;81.40;;;;;;5020489;28;20385;-68
2022/04/02 08:18:07;;;;;;;3.65;1.63;;;6.80;83.80;;;;;;5009220;28;20424;-68
2022/04/02 08:20:33;;;;;;;5.82;2.00;;;6.70;84.00;;;;;;5005879;28;20059;-67
2022/04/02 08:23:01;;;;;;;3.60;1.30;;;6.30;84.80;;;;;;5031263;28;20089;-71
2022/04/02 08:25:27;;;;;;;3.88;1.63;;;6.00;84.60;;;;;;5002910;28;20517;-70
2022/04/02 08:28:12;;;;;;;4.25;1.60;;;5.60;84.20;;;;;;4995028;28;20045;-70
2022/04/02 08:30:48;;;;;;;4.63;2.50;;;5.40;85.60;;;;;;5007500;28;20033;-70
2022/04/02 08:33:38;;;;;;;3.60;1.80;;;5.30;86.10;;;;;;5011155;28;20041;-68
2022/04/02 08:36:13;;;;;;;4.13;2.05;;;5.20;86.80;;;;;;5027331;28;20060;-68
2022/04/02 08:38:56;;;;;;;3.53;1.80;;;5.20;87.60;;;;;;5008392;28;20049;-69
2022/04/02 08:41:34;;;;;;;5.15;1.95;;;5.10;87.10;;;;;;5007502;28;20049;-70
2022/04/02 08:44:37;;;;;;;4.50;1.70;;;5.00;87.90;;;;;;5005184;28;20064;-70
2022/04/02 08:47:11;;;;;;;3.40;1.63;;;4.80;87.90;;;;;;5000233;28;20073;-70
2022/04/02 08:49:41;;;;;;;13.70;2.58;;;4.70;89.30;;;;;;5003415;28;20066;-69
2022/04/02 08:52:20;;;;;;;2.55;1.40;;;4.60;90.00;;;;;;5001831;28;20096;-69
2022/04/02 08:55:08;;;;;;;4.13;1.58;;;4.40;90.20;;;;;;5003601;28;20385;-66
2022/04/02 08:57:52;;;;;;;4.22;1.65;;;4.40;90.60;;;;;;5006448;28;20057;-67
2022/04/02 09:00:27;;;;;;;8.55;1.73;;;4.30;90.80;;;;;;5002810;28;20041;-66
2022/04/02 09:03:10;;;;;;;;;;;4.30;91.20;;;;;;5008717;28;20108;-66
2022/04/02 09:06:03;;;;;;;6.25;1.80;;;4.30;91.70;;;;;;5003599;28;19922;-66
2022/04/02 09:09:07;;;;;;;4.03;1.65;;;4.20;91.50;;;;;;4994728;28;20042;-65
2022/04/02 09:11:56;;;;;;;1.90;1.23;;;4.20;91.80;;;;;;5000948;28;20582;-66
2022/04/02 09:14:51;;;;;;;9.23;2.65;;;4.10;91.90;;;;;;5008325;28;20034;-67
2022/04/02 09:17:35;;;;;;;5.13;1.58;;;4.10;92.20;;;;;;4993253;28;20046;-68
2022/04/02 09:20:20;;;;;;;3.15;1.40;;;4.10;92.20;;;;;;4999205;28;20121;-68
2022/04/02 09:23:06;;;;;;;6.47;2.63;;;4.10;92.30;;;;;;5001618;28;20050;-68
2022/04/02 09:26:00;;;;;;;3.72;1.55;;;4.20;92.30;;;;;;4981109;28;20042;-68
2022/04/02 09:28:45;;;;;;;2.42;1.42;;;4.30;92.40;;;;;;4999977;28;20034;-69
2022/04/02 09:31:38;;;;;;;3.13;1.23;;;4.40;92.60;;;;;;4998699;28;20045;-69
2022/04/02 09:34:20;;;;;;;6.28;1.30;;;4.40;91.30;;;;;;4998203;28;20042;-70
2022/04/02 09:36:59;;;;;;;3.85;1.90;;;4.50;91.60;;;;;;5004924;28;20060;-69
2022/04/02 09:40:02;;;;;;;3.28;1.23;;;4.50;90.90;;;;;;4988163;28;20378;-67
2022/04/02 09:42:44;;;;;;;3.60;1.45;;;4.60;91.40;;;;;;5004058;28;20057;-66
2022/04/02 09:45:14;;;;;;;3.00;1.30;;;5.10;91.60;;;;;;4999529;28;20058;-67
2022/04/02 09:47:46;;;;;;;4.82;1.30;;;5.80;90.70;;;;;;5005104;28;20050;-68
2022/04/02 09:50:16;;;;;;;7.38;1.50;;;6.00;89.50;;;;;;5007578;28;20493;-68
2022/04/02 09:52:44;;;;;;;2.30;1.10;;;6.00;86.70;;;;;;5005122;28;20556;-69
2022/04/02 09:55:15;;;;;;;4.15;1.10;;;6.00;84.40;;;;;;5012297;28;20325;-68
2022/04/02 09:57:44;;;;;;;2.63;0.93;;;5.60;82.50;;;;;;5019104;28;20049;-73
2022/04/02 10:00:11;;;;;;;3.92;1.30;;;5.20;83.00;;;;;;5012106;28;20412;-68
2022/04/02 10:03:04;;;;;;;3.83;0.80;;;4.90;84.60;;;;;;4980356;28;20624;-68
2022/04/02 10:05:48;;;;;;;3.08;0.88;;;4.70;85.50;;;;;;5001589;28;20084;-68
2022/04/02 10:08:49;;;;;;;4.15;1.13;;;4.50;86.80;;;;;;4998591;28;20116;-67
2022/04/02 10:11:18;;;;;;;3.13;0.95;;;4.40;87.80;;;;;;5000630;28;20058;-68
2022/04/02 10:13:44;;;;;;;2.53;1.13;;;4.30;87.80;;;;;;5002347;28;20057;-71
2022/04/02 10:16:12;;;;;;;3.25;1.02;;;4.30;88.00;;;;;;4988563;28;20061;-72
2022/04/02 10:18:41;;;;;;;1.20;0.50;;;4.20;88.80;;;;;;5000253;28;20046;-66
2022/04/02 10:21:09;;;;;;;3.92;0.90;;;4.30;88.20;;;;;;5003147;28;20555;-69
2022/04/02 10:23:37;;;;;;;2.22;0.95;;;4.40;86.40;;;;;;5002181;28;20045;-66
2022/04/02 10:26:07;;;;;;;4.63;1.08;;;4.40;86.60;;;;;;5004520;28;20057;-67
2022/04/02 10:28:58;;;;;;;1.60;1.05;;;4.40;83.70;;;;;;5005992;28;20038;-66
2022/04/02 10:31:40;;;;;;;1.88;0.80;;;4.50;84.10;;;;;;5003729;28;20049;-66
2022/04/02 10:34:34;;;;;;;2.67;1.02;;;4.70;84.50;;;;;;5003728;28;20045;-67
2022/04/02 10:37:14;;;;;;;2.25;0.80;;;5.20;84.30;;;;;;5004053;28;20042;-69
2022/04/02 10:40:05;;;;;;;2.92;1.08;;;6.00;79.20;;;;;;5006532;28;20118;-69
2022/04/02 10:42:49;;;;;;;4.65;0.93;;;6.40;76.80;;;;;;4983085;28;20046;-70
2022/04/02 10:45:18;;;;;;;4.75;1.02;;;6.40;76.00;;;;;;4986354;28;20525;-67
2022/04/02 10:47:51;;;;;;;3.78;0.88;;;6.40;74.10;;;;;;4979638;28;20035;-67
2022/04/02 10:50:19;;;;;;;1.33;0.57;;;6.20;74.00;;;;;;4985710;28;20045;-68
2022/04/02 10:52:48;;;;;;;2.92;0.63;;;6.20;73.10;;;;;;4982596;28;20038;-70
2022/04/02 10:55:21;;;;;;;1.42;0.60;;;6.10;72.60;;;;;;4987437;28;20058;-70
2022/04/02 10:57:47;;;;;;;3.50;0.75;;;6.00;73.50;;;;;;4983639;28;20537;-67
2022/04/02 11:00:13;;;;;;;5.20;1.08;;;5.90;74.10;;;;;;4985913;28;20192;-66
2022/04/02 11:02:49;;;;;;;2.03;0.70;;;6.10;75.50;;;;;;4978678;28;20077;-66
2022/04/02 11:05:17;;;;;;;2.63;0.68;;;6.30;71.90;;;;;;4985476;28;20050;-69
2022/04/02 11:07:44;;;;;;;6.35;0.65;;;6.30;70.40;;;;;;4964205;28;20062;-67
2022/04/02 11:10:17;;;;;;;1.75;0.50;;;6.40;68.60;;;;;;4987630;28;20039;-69
2022/04/02 11:12:44;;;;;;;3.42;0.75;;;7.00;68.60;;;;;;4982091;28;20764;-68
2022/04/02 11:15:21;;;;;;;1.85;0.80;;;7.80;68.50;;;;;;4986068;28;20050;-71
2022/04/02 11:17:55;;;;;;;1.55;0.68;;;8.20;65.10;;;;;;4982061;28;20047;-70
2022/04/02 11:20:32;;;;;;;3.17;0.90;;;8.40;65.90;;;;;;4983236;28;20046;-71
2022/04/02 11:23:14;;;;;;;2.63;1.00;;;8.60;65.00;;;;;;4985444;28;20054;-71
2022/04/02 11:25:46;;;;;;;2.20;0.70;;;8.30;70.40;;;;;;4983596;28;20050;-71
2022/04/02 11:28:14;;;;;;;3.75;0.93;;;8.30;72.00;;;;;;4987851;28;20046;-71
2022/04/02 11:30:51;;;;;;;2.40;0.80;;;8.10;70.50;;;;;;4989243;28;20039;-72
2022/04/02 11:33:26;;;;;;;4.88;0.85;;;7.70;69.80;;;;;;4987326;28;20510;-69
2022/04/02 11:36:03;;;;;;;2.15;0.73;;;7.20;71.30;;;;;;4987064;28;20065;-69
2022/04/02 11:38:57;;;;;;;5.35;1.17;;;6.80;73.00;;;;;;4974668;28;20065;-68
2022/04/02 11:41:27;;;;;;;2.60;1.05;;;6.20;71.60;;;;;;4998562;28;20081;-68
2022/04/02 11:44:05;;;;;;;2.33;1.05;;;5.80;72.70;;;;;;4994426;28;20058;-66
2022/04/02 11:47:00;;;;;;;2.22;1.13;;;5.50;74.10;;;;;;5005636;28;20172;-67
2022/04/02 11:49:28;;;;;;;4.15;1.17;;;5.20;77.80;;;;;;5010415;28;20473;-67
2022/04/02 11:52:05;;;;;;;3.03;1.30;;;5.00;81.70;;;;;;4988401;28;20055;-67
2022/04/02 11:54:41;;;;;;;4.07;1.05;;;4.90;83.70;;;;;;5007367;28;20034;-68
2022/04/02 11:57:08;;;;;;;2.25;0.98;;;5.10;84.20;;;;;;5008158;28;20739;-68
2022/04/02 11:59:35;;;;;;;3.28;1.20;;;5.30;81.90;;;;;;5009558;28;20052;-67
2022/04/02 12:02:02;;;;;;;3.00;1.20;;;5.40;82.30;;;;;;5010318;28;20042;-67
2022/04/02 12:04:27;;;;;;;2.42;0.90;;;5.40;79.80;;;;;;5009235;28;20074;-66
2022/04/02 12:07:03;;;;;;;3.83;1.13;;;5.40;78.80;;;;;;5012032;28;20531;-66
2022/04/02 12:09:29;;;;;;;2.17;1.00;;;5.70;79.20;;;;;;5011585;28;20536;-67
2022/04/02 12:12:03;;;;;;;5.18;1.27;;;5.90;76.70;;;;;;5007254;28;20042;-67
2022/04/02 12:14:38;;;;;;;2.00;0.80;;;6.20;74.50;;;;;;5006846;28;20472;-68
2022/04/02 12:17:09;;;;;;;2.80;0.60;;;6.70;74.00;;;;;;5004594;28;20532;-68
2022/04/02 12:19:41;;;;;;;4.70;0.93;;;7.10;69.90;;;;;;5007602;28;20041;-68
2022/04/02 12:22:22;;;;;;;1.73;0.80;;;7.60;66.80;;;;;;5006268;28;20037;-68
2022/04/02 12:24:52;;;;;;;1.58;0.60;;;8.30;65.10;;;;;;5005641;28;20061;-68
2022/04/02 12:27:22;;;;;;;2.22;0.77;;;8.80;60.40;;;;;;5004970;28;20041;-66
2022/04/02 12:29:53;;;;;;;2.50;0.50;;;8.80;54.40;;;;;;5004043;28;20124;-67
2022/04/02 12:32:31;;;;;;;2.35;0.60;;;8.60;56.60;;;;;;4998955;28;20129;-67
2022/04/02 12:35:20;;;;;;;2.40;0.70;;;8.40;57.70;;;;;;5003062;28;20168;-68
2022/04/02 12:37:51;;;;;;;2.38;0.82;;;8.20;57.40;;;;;;5000957;28;20117;-67
2022/04/02 12:40:19;;;;;;;1.40;0.70;;;8.70;58.20;;;;;;5003637;28;20056;-70
2022/04/02 12:42:47;;;;;;;1.95;0.68;;;8.60;57.70;;;;;;5002824;28;20835;-67
2022/04/02 12:45:32;;;;;;;6.55;1.20;;;8.20;59.10;;;;;;5022024;28;20038;-68
2022/04/02 12:48:17;;;;;;;2.47;0.60;;;8.10;57.40;;;;;;5011298;28;20044;-68
2022/04/02 12:51:01;;;;;;;2.95;0.93;;;8.10;57.70;;;;;;5014389;28;20118;-69
2022/04/02 12:53:36;;;;;;;1.73;0.50;;;8.50;57.50;;;;;;5005292;28;20051;-70
2022/04/02 12:56:04;;;;;;;4.70;1.85;;;8.50;57.20;;;;;;5007863;28;20084;-70
2022/04/02 12:58:38;;;;;;;3.88;0.60;;;9.00;56.80;;;;;;5025024;28;20126;-69
2022/04/02 13:01:13;;;;;;;2.90;0.80;;;9.10;55.70;;;;;;5020547;28;20099;-70
2022/04/02 13:04:04;;;;;;;1.88;0.77;;;8.50;55.60;;;;;;5023805;28;20045;-70
2022/04/02 13:06:48;;;;;;;2.25;0.45;;;8.10;56.20;;;;;;4988928;28;20064;-70
2022/04/02 13:09:19;;;;;;;2.65;0.50;;;8.60;53.40;;;;;;5009509;28;20436;-70
2022/04/02 13:11:54;;;;;;;1.58;0.55;;;9.20;53.10;;;;;;5003019;28;20361;-71
2022/04/02 13:14:29;;;;;;;3.50;0.80;;;10.00;53.20;;;;;;4990155;28;20045;-69
2022/04/02 13:17:06;;;;;;;2.53;0.50;;;10.60;51.90;;;;;;5021846;28;20045;-68
2022/04/02 13:22:51;;;;;;;2.30;0.60;;;10.60;48.00;;;;;;4999358;28;20061;-71